Αναφορές METAR Αεροδρομίων

 

LGTS - THESSALONIKI - GREECE
Ενημερώθηκε: 18/06/2018 08:20
Αραιές Νεφώσεις
Αραιές Νεφώσεις
 Ανεμος από ΒΒΔ
Ανεμος: ΒΒΔ 11 km/h
Θερμοκρασία: 23°C
Σημ. Δρόσου: 17°C
Υγρασία: 69%
Βαρόμετρο: 1010 hPa
Clouds: Αραιές Νεφώσεις
Visibility: 10 km
Cloud details: Αραιές Νεφώσεις 762 m
2018/06/18 05:20 LGTS 180520Z 33006KT 9999 FEW025 23/17 Q1010 NOSIG
LGLR - LARTISA - GREECE
Ενημερώθηκε: 18/06/2018 07:50
Αραιές Νεφώσεις
Αραιές Νεφώσεις
 Ανεμος από calm
Ανεμος: Απνοια
Θερμοκρασία: 19°C
Σημ. Δρόσου: 16°C
Υγρασία: 83%
Βαρόμετρο: 1010 hPa
Clouds: Αραιές Νεφώσεις
Visibility: 10 km
Cloud details: Αραιές Νεφώσεις 2438 m
2018/06/18 04:50 LGLR 180450Z 00000KT 9999 FEW080 19/16 Q1010 BLU
 
LGKZ - KOZANI - GREECE
Ενημερώθηκε: 18/06/2018 07:50
Μερικώς νεφελώδης
Μερικώς νεφελώδης
 Ανεμος από ΒΒΔ
Ανεμος: ΒΒΔ 7 km/h
Θερμοκρασία: 17°C
Σημ. Δρόσου: 15°C
Υγρασία: 88%
Βαρόμετρο: 1012 hPa
Clouds: Μερικώς νεφελώδης
Visibility: 10 km
Cloud details: Μερικώς νεφελώδης 2134 m
2018/06/18 04:50 LGKZ 180450Z 34004KT 9999 SCT070 17/15 Q1012
LGKV - KAVALA - GREECE
Ενημερώθηκε: 18/06/2018 08:20
Μερικώς νεφελώδης
Μερικώς νεφελώδης
 Ανεμος από ΒΑ
Ανεμος: ΒΑ 7 km/h
Θερμοκρασία: 22°C
Σημ. Δρόσου: 18°C
Υγρασία: 78%
Βαρόμετρο: 1009 hPa
Clouds: Μερικώς νεφελώδης
Visibility: 10 km
Cloud details: Αραιές Νεφώσεις 762 m
Μερικώς νεφελώδης 2438 m
2018/06/18 05:20 LGKV 180520Z 04004KT 9999 FEW025 SCT080 22/18 Q1009
 
LGIO - IOANNINA - GREECE
Ενημερώθηκε: 18/06/2018 08:20
Mist, Συννεφιά
Mist, Συννεφιά
 Ανεμος από varies
Ανεμος: varies 0 km/h
Θερμοκρασία: 17°C
Σημ. Δρόσου: 17°C
Υγρασία: 100%
Βαρόμετρο: 1011 hPa
Περίληψη: Mist
Clouds: Συννεφιά
Visibility: 3 km
Cloud details: Σχεδόν νεφελώδης 61 m
Σχεδόν νεφελώδης 1067 m
Συννεφιά 1829 m
2018/06/18 05:20 LGIO 180520Z /////KT 2500 BR BKN002 BKN035 OVC060 17/17 Q1011
LGBL - BOLOS - GREECE
Ενημερώθηκε: 18/06/2018 08:20
Αραιές Νεφώσεις
Αραιές Νεφώσεις
 Ανεμος από calm
Ανεμος: Απνοια
Θερμοκρασία: 23°C
Σημ. Δρόσου: 16°C
Υγρασία: 65%
Βαρόμετρο: 1009 hPa
Clouds: Αραιές Νεφώσεις
Visibility: 10 km
Cloud details: Αραιές Νεφώσεις 914 m
2018/06/18 05:20 LGBL 180520Z 00000KT 9999 FEW030 23/16 Q1009
 
LGMT - MITILINI - GREECE
Ενημερώθηκε: 18/06/2018 07:50
Αραιές Νεφώσεις
Αραιές Νεφώσεις
 Ανεμος από calm
Ανεμος: Απνοια
Θερμοκρασία: 21°C
Σημ. Δρόσου: 16°C
Υγρασία: 73%
Βαρόμετρο: 1009 hPa
Clouds: Αραιές Νεφώσεις
Visibility: 10 km
Cloud details: Αραιές Νεφώσεις 610 m
2018/06/18 04:50 LGMT 180450Z 00000KT 9999 FEW020 21/16 Q1009
LGAV - ATHENS - GREECE
Ενημερώθηκε: 18/06/2018 08:20
Μερικώς νεφελώδης
Μερικώς νεφελώδης
 Ανεμος από ΒΒΑ
Ανεμος: ΒΒΑ 7 km/h
Θερμοκρασία: 23°C
Σημ. Δρόσου: 17°C
Υγρασία: 69%
Βαρόμετρο: 1010 hPa
Clouds: Μερικώς νεφελώδης
Visibility: 10 km
Cloud details: Αραιές Νεφώσεις 762 m
Μερικώς νεφελώδης 2134 m
2018/06/18 05:20 LGAV 180520Z 03004KT 340V070 9999 FEW025 SCT070 23/17 Q1010 NOSIG
 
LGRP - RODOS - GREECE
Ενημερώθηκε: 18/06/2018 08:20
Αραιές Νεφώσεις
Αραιές Νεφώσεις
 Ανεμος από Δ
Ανεμος: Δ 13 km/h
Θερμοκρασία: 24°C
Σημ. Δρόσου: 22°C
Υγρασία: 89%
Βαρόμετρο: 1007 hPa
Clouds: Αραιές Νεφώσεις
Visibility: 10 km
Cloud details: Αραιές Νεφώσεις 305 m
2018/06/18 05:20 LGRP 180520Z 27007KT 9999 FEW010 24/22 Q1007 NOSIG
LGIR - HRAKLIO/KRITI - GREECE
Ενημερώθηκε: 18/06/2018 08:20
Αραιές Νεφώσεις
Αραιές Νεφώσεις
 Ανεμος από ΔΝΔ
Ανεμος: ΔΝΔ 6 km/h
Θερμοκρασία: 23°C
Σημ. Δρόσου: 19°C
Υγρασία: 78%
Βαρόμετρο: 1009 hPa
Clouds: Αραιές Νεφώσεις
Visibility: 10 km
Cloud details: Αραιές Νεφώσεις 549 m
2018/06/18 05:20 LGIR 180520Z 24003KT 9999 FEW018TCU 23/19 Q1009 NOSIG
 
LGMK - MIKONOS - GREECE
Ενημερώθηκε: 18/06/2018 08:20
Αραιές Νεφώσεις
Αραιές Νεφώσεις
 Ανεμος από ΒΒΔ
Ανεμος: ΒΒΔ 13 km/h
Θερμοκρασία: 22°C
Σημ. Δρόσου: 19°C
Υγρασία: 83%
Βαρόμετρο: 1008 hPa
Clouds: Αραιές Νεφώσεις
Visibility: 10 km
Cloud details: Αραιές Νεφώσεις 366 m
2018/06/18 05:20 LGMK 180520Z 34007KT 9999 FEW012 22/19 Q1008
LGKR - KERKIRA - GREECE
Ενημερώθηκε: 18/06/2018 08:20
Αραιές Νεφώσεις
Αραιές Νεφώσεις
 Ανεμος από calm
Ανεμος: Απνοια
Θερμοκρασία: 22°C
Σημ. Δρόσου: 21°C
Υγρασία: 94%
Βαρόμετρο: 1009 hPa
Clouds: Αραιές Νεφώσεις
Visibility: 10 km
Cloud details: Αραιές Νεφώσεις 366 m
Αραιές Νεφώσεις 610 m
2018/06/18 05:20 LGKR 180520Z 00000KT 9999 FEW012 FEW020TCU 22/21 Q1009 NOSIG